Stewiacke, Canada
Current Conditions -  °F | °C
As of 2:00 AM on Thursday 23 Oct 2014 (Local Time) from CYHZ Reporting Station
Overcast Overcast  
Wind Chill: 52°   Ceiling: 700
Heat Index: 52°   Visibility: 8mi
Dew Point: 50°   Wind: 13mph
Humidity: 94%   Direction: 70°ENE
Pressure: 30.14"   Gusts: 22mph
Location:  45.13°N, 63.35°W
Report Text: CYHZ 230500Z 07011G19KT 8SM BKN007 OVC030 11/10 A3014 RMK SF7SC1 SLP210
Loading
Personal Weather Stations






























Interactive Weather Map
Tropical Storm Tracking
New forecast layout! Learn more

10-Day Weather Forecast

Advertisements
Track Severe Weather on mobile